Gustavus, AK

6:11 PM AKDT on April 23, 2017 (GMT -0800)
Gustavus | | Change Station

Elev 33 ft 58.42 °N, 135.71 °W | Updated 15 minutes ago

Clear
Clear
60 °F
Feels Like 60 °F
N
7
Wind Variable Wind from SSW

Today
High -- | Low -- °F
--% Chance of Precip.
Yesterday
High -- | Low -- °F
Precip. -- in
Pressure 29.70 in
Visibility 10.0 miles
Clouds Clear
Dew Point 29 °F
Humidity 31%
Rainfall 0.00 in
Snow Depth Not available.
5:28 AM 8:35 PM
Waning Crescent, 8% visible
METAR PAGS 240156Z AUTO 21006KT 10SM CLR 16/M02 A2970 RMK AO2 SLP058 T01561017
Pressure 29.70 in
Visibility 10.0 miles
Clouds Clear
Dew Point 29 °F
Humidity 31%
Rainfall 0.00 in
Snow Depth Not available.
5:28 AM 8:35 PM
Waning Crescent, 8% visible
METAR PAGS 240156Z AUTO 21006KT 10SM CLR 16/M02 A2970 RMK AO2 SLP058 T01561017

Get Severe Weather Alerts

Thanks for signing up!

Be on the lookout for a verification email in your inbox.

You'll start receiving the daily forecast at 8 AM.

×

10-Day Weather Forecast

Almanac

Astronomy

Apr. 23, 2017 Rise Set
Actual Time
Civil Twilight
Nautical Twilight
Astronomical Twilight
Moon
Length of Visible Light
Length of Day
Tomorrow will be .
, % of the Moon is Illuminated

Today's Extremes

State Highs State Lows

Community

WunderPhotos

WunderBlog® & News

Nearby

Air Quality

  Air Quality AQ Index Pollutant
Not available.

Snow Depth

Station Depth Elevation

Earthquake Activity

City Distance Mag. Time & Date
Minimum magnitude displayed is 2.5.

Coastal Water Temperatures

Place Temperature

Stations

Nearby Weather Stations

Station Location Temp. Windchill Dew Point Humidity Wind Precip. Elev Updated Type
                   

Watches & Warnings

There are currently no watches in effect.